sensor_id;sensor_type;location;lat;lon;timestamp;P1;durP1;ratioP1;P2;durP2;ratioP2
53753;SDS011;39667;52.274;20.964;2022-07-11T00:00:44;3.10;;;2.20;;
53753;SDS011;39667;52.274;20.964;2022-07-11T00:03:11;4.00;;;2.20;;
53753;SDS011;39667;52.274;20.964;2022-07-11T00:05:37;3.30;;;2.20;;
53753;SDS011;39667;52.274;20.964;2022-07-11T00:08:04;2.50;;;2.00;;
53753;SDS011;39667;52.274;20.964;2022-07-11T00:10:32;2.10;;;1.80;;
53753;SDS011;39667;52.274;20.964;2022-07-11T00:12:59;3.40;;;2.10;;
53753;SDS011;39667;52.274;20.964;2022-07-11T00:15:25;2.30;;;1.90;;
53753;SDS011;39667;52.274;20.964;2022-07-11T00:17:52;3.70;;;2.20;;
53753;SDS011;39667;52.274;20.964;2022-07-11T00:20:18;3.10;;;1.90;;
53753;SDS011;39667;52.274;20.964;2022-07-11T00:22:44;3.30;;;2.00;;
53753;SDS011;39667;52.274;20.964;2022-07-11T00:25:10;2.70;;;2.10;;
53753;SDS011;39667;52.274;20.964;2022-07-11T00:27:36;4.50;;;2.10;;
53753;SDS011;39667;52.274;20.964;2022-07-11T00:30:02;3.20;;;1.60;;
53753;SDS011;39667;52.274;20.964;2022-07-11T00:32:29;3.80;;;1.70;;
53753;SDS011;39667;52.274;20.964;2022-07-11T00:34:55;2.90;;;1.40;;
53753;SDS011;39667;52.274;20.964;2022-07-11T00:37:22;1.60;;;1.50;;
53753;SDS011;39667;52.274;20.964;2022-07-11T00:39:48;3.80;;;1.80;;
53753;SDS011;39667;52.274;20.964;2022-07-11T00:42:17;3.10;;;2.00;;
53753;SDS011;39667;52.274;20.964;2022-07-11T00:44:44;3.00;;;1.60;;
53753;SDS011;39667;52.274;20.964;2022-07-11T00:47:11;4.80;;;1.80;;
53753;SDS011;39667;52.274;20.964;2022-07-11T00:49:37;1.50;;;1.30;;
53753;SDS011;39667;52.274;20.964;2022-07-11T00:52:03;3.00;;;1.70;;
53753;SDS011;39667;52.274;20.964;2022-07-11T00:54:30;3.20;;;1.50;;
53753;SDS011;39667;52.274;20.964;2022-07-11T00:56:56;4.50;;;1.80;;
53753;SDS011;39667;52.274;20.964;2022-07-11T00:59:24;1.70;;;1.10;;
53753;SDS011;39667;52.274;20.964;2022-07-11T01:01:51;2.90;;;1.60;;
53753;SDS011;39667;52.274;20.964;2022-07-11T01:04:18;2.40;;;1.80;;
53753;SDS011;39667;52.274;20.964;2022-07-11T01:06:44;1.80;;;1.70;;
53753;SDS011;39667;52.274;20.964;2022-07-11T01:09:10;2.20;;;1.80;;
53753;SDS011;39667;52.274;20.964;2022-07-11T01:11:36;2.80;;;1.70;;
53753;SDS011;39667;52.274;20.964;2022-07-11T01:14:03;2.30;;;1.50;;
53753;SDS011;39667;52.274;20.964;2022-07-11T01:16:29;2.20;;;1.40;;
53753;SDS011;39667;52.274;20.964;2022-07-11T01:18:56;3.40;;;1.60;;
53753;SDS011;39667;52.274;20.964;2022-07-11T01:23:49;1.90;;;1.50;;
53753;SDS011;39667;52.274;20.964;2022-07-11T01:26:18;4.30;;;1.50;;
53753;SDS011;39667;52.274;20.964;2022-07-11T01:28:46;1.80;;;1.50;;
53753;SDS011;39667;52.274;20.964;2022-07-11T01:31:12;4.80;;;1.60;;
53753;SDS011;39667;52.274;20.964;2022-07-11T01:33:39;2.80;;;1.30;;
53753;SDS011;39667;52.274;20.964;2022-07-11T01:36:06;4.00;;;1.70;;
53753;SDS011;39667;52.274;20.964;2022-07-11T01:38:33;3.60;;;1.50;;
53753;SDS011;39667;52.274;20.964;2022-07-11T01:40:59;2.40;;;1.30;;
53753;SDS011;39667;52.274;20.964;2022-07-11T01:43:26;2.80;;;1.30;;
53753;SDS011;39667;52.274;20.964;2022-07-11T01:45:53;1.80;;;1.30;;
53753;SDS011;39667;52.274;20.964;2022-07-11T01:48:20;6.70;;;1.60;;
53753;SDS011;39667;52.274;20.964;2022-07-11T01:50:47;2.60;;;1.80;;
53753;SDS011;39667;52.274;20.964;2022-07-11T01:53:15;2.90;;;1.60;;
53753;SDS011;39667;52.274;20.964;2022-07-11T01:55:42;2.30;;;1.50;;
53753;SDS011;39667;52.274;20.964;2022-07-11T01:58:29;3.90;;;2.00;;
53753;SDS011;39667;52.274;20.964;2022-07-11T02:00:57;3.00;;;1.20;;
53753;SDS011;39667;52.274;20.964;2022-07-11T02:03:24;2.20;;;1.30;;
53753;SDS011;39667;52.274;20.964;2022-07-11T02:05:50;3.00;;;1.60;;
53753;SDS011;39667;52.274;20.964;2022-07-11T02:08:17;3.00;;;1.50;;
53753;SDS011;39667;52.274;20.964;2022-07-11T02:10:44;3.70;;;1.70;;
53753;SDS011;39667;52.274;20.964;2022-07-11T02:13:12;2.90;;;1.60;;
53753;SDS011;39667;52.274;20.964;2022-07-11T02:15:40;4.10;;;1.50;;
53753;SDS011;39667;52.274;20.964;2022-07-11T02:18:07;6.10;;;1.70;;
53753;SDS011;39667;52.274;20.964;2022-07-11T02:20:35;4.90;;;2.10;;
53753;SDS011;39667;52.274;20.964;2022-07-11T02:23:01;4.40;;;1.90;;
53753;SDS011;39667;52.274;20.964;2022-07-11T02:25:29;3.00;;;1.70;;
53753;SDS011;39667;52.274;20.964;2022-07-11T02:27:56;4.00;;;1.50;;
53753;SDS011;39667;52.274;20.964;2022-07-11T02:30:22;4.30;;;1.90;;
53753;SDS011;39667;52.274;20.964;2022-07-11T02:32:50;6.80;;;1.90;;
53753;SDS011;39667;52.274;20.964;2022-07-11T02:35:17;3.00;;;1.40;;
53753;SDS011;39667;52.274;20.964;2022-07-11T02:37:44;3.60;;;1.70;;
53753;SDS011;39667;52.274;20.964;2022-07-11T02:40:10;8.60;;;2.50;;
53753;SDS011;39667;52.274;20.964;2022-07-11T02:42:37;8.40;;;2.00;;
53753;SDS011;39667;52.274;20.964;2022-07-11T02:45:03;4.40;;;1.60;;
53753;SDS011;39667;52.274;20.964;2022-07-11T02:47:30;4.10;;;1.70;;
53753;SDS011;39667;52.274;20.964;2022-07-11T02:49:57;2.90;;;1.70;;
53753;SDS011;39667;52.274;20.964;2022-07-11T02:52:23;4.70;;;1.90;;
53753;SDS011;39667;52.274;20.964;2022-07-11T02:54:49;9.20;;;2.00;;
53753;SDS011;39667;52.274;20.964;2022-07-11T02:57:16;7.20;;;2.10;;
53753;SDS011;39667;52.274;20.964;2022-07-11T02:59:42;8.40;;;2.00;;
53753;SDS011;39667;52.274;20.964;2022-07-11T03:02:08;6.00;;;2.10;;
53753;SDS011;39667;52.274;20.964;2022-07-11T03:04:34;4.20;;;2.10;;
53753;SDS011;39667;52.274;20.964;2022-07-11T03:07:01;3.30;;;1.80;;
53753;SDS011;39667;52.274;20.964;2022-07-11T03:09:27;3.00;;;1.80;;
53753;SDS011;39667;52.274;20.964;2022-07-11T03:11:53;3.90;;;2.00;;
53753;SDS011;39667;52.274;20.964;2022-07-11T03:14:20;4.40;;;2.10;;
53753;SDS011;39667;52.274;20.964;2022-07-11T03:16:46;4.40;;;1.70;;
53753;SDS011;39667;52.274;20.964;2022-07-11T03:19:12;4.00;;;1.80;;
53753;SDS011;39667;52.274;20.964;2022-07-11T03:21:38;5.00;;;2.50;;
53753;SDS011;39667;52.274;20.964;2022-07-11T03:24:05;7.00;;;2.40;;
53753;SDS011;39667;52.274;20.964;2022-07-11T03:26:31;5.00;;;2.20;;
53753;SDS011;39667;52.274;20.964;2022-07-11T03:28:57;4.70;;;2.00;;
53753;SDS011;39667;52.274;20.964;2022-07-11T03:31:23;4.70;;;2.30;;
53753;SDS011;39667;52.274;20.964;2022-07-11T03:33:50;6.10;;;2.10;;
53753;SDS011;39667;52.274;20.964;2022-07-11T03:36:16;3.60;;;2.20;;
53753;SDS011;39667;52.274;20.964;2022-07-11T03:38:42;7.40;;;2.60;;
53753;SDS011;39667;52.274;20.964;2022-07-11T03:41:08;2.60;;;2.00;;
53753;SDS011;39667;52.274;20.964;2022-07-11T03:43:34;6.10;;;2.10;;
53753;SDS011;39667;52.274;20.964;2022-07-11T03:46:01;3.90;;;2.40;;
53753;SDS011;39667;52.274;20.964;2022-07-11T03:48:27;5.60;;;2.30;;
53753;SDS011;39667;52.274;20.964;2022-07-11T03:50:54;2.90;;;1.50;;
53753;SDS011;39667;52.274;20.964;2022-07-11T03:53:20;4.50;;;1.80;;
53753;SDS011;39667;52.274;20.964;2022-07-11T03:55:46;2.40;;;1.60;;
53753;SDS011;39667;52.274;20.964;2022-07-11T03:58:12;2.80;;;1.30;;
53753;SDS011;39667;52.274;20.964;2022-07-11T04:00:39;5.90;;;2.10;;
53753;SDS011;39667;52.274;20.964;2022-07-11T04:03:05;4.50;;;1.70;;
53753;SDS011;39667;52.274;20.964;2022-07-11T04:05:32;1.90;;;1.70;;
53753;SDS011;39667;52.274;20.964;2022-07-11T04:07:58;3.60;;;1.50;;
53753;SDS011;39667;52.274;20.964;2022-07-11T04:10:24;5.20;;;2.00;;
53753;SDS011;39667;52.274;20.964;2022-07-11T04:12:51;2.70;;;1.50;;
53753;SDS011;39667;52.274;20.964;2022-07-11T04:15:17;5.10;;;2.00;;
53753;SDS011;39667;52.274;20.964;2022-07-11T04:17:43;5.90;;;1.90;;
53753;SDS011;39667;52.274;20.964;2022-07-11T04:20:09;4.10;;;1.70;;
53753;SDS011;39667;52.274;20.964;2022-07-11T04:22:36;4.40;;;2.30;;
53753;SDS011;39667;52.274;20.964;2022-07-11T04:25:02;4.80;;;2.70;;
53753;SDS011;39667;52.274;20.964;2022-07-11T04:27:29;5.60;;;3.00;;
53753;SDS011;39667;52.274;20.964;2022-07-11T04:29:57;6.90;;;2.30;;
53753;SDS011;39667;52.274;20.964;2022-07-11T04:32:23;7.60;;;2.70;;
53753;SDS011;39667;52.274;20.964;2022-07-11T04:34:50;3.20;;;2.10;;
53753;SDS011;39667;52.274;20.964;2022-07-11T04:37:16;5.90;;;2.40;;
53753;SDS011;39667;52.274;20.964;2022-07-11T04:39:42;6.60;;;3.20;;
53753;SDS011;39667;52.274;20.964;2022-07-11T04:42:11;7.10;;;2.50;;
53753;SDS011;39667;52.274;20.964;2022-07-11T04:44:37;10.20;;;2.80;;
53753;SDS011;39667;52.274;20.964;2022-07-11T04:47:03;2.00;;;1.70;;
53753;SDS011;39667;52.274;20.964;2022-07-11T04:49:30;8.10;;;2.30;;
53753;SDS011;39667;52.274;20.964;2022-07-11T04:51:56;8.30;;;2.70;;
53753;SDS011;39667;52.274;20.964;2022-07-11T04:54:28;6.00;;;2.90;;
53753;SDS011;39667;52.274;20.964;2022-07-11T04:56:54;4.50;;;2.60;;
53753;SDS011;39667;52.274;20.964;2022-07-11T04:59:20;5.50;;;2.40;;
53753;SDS011;39667;52.274;20.964;2022-07-11T05:01:46;6.10;;;2.70;;
53753;SDS011;39667;52.274;20.964;2022-07-11T05:04:13;6.30;;;2.60;;
53753;SDS011;39667;52.274;20.964;2022-07-11T05:06:39;6.10;;;2.70;;
53753;SDS011;39667;52.274;20.964;2022-07-11T05:09:05;10.70;;;3.00;;
53753;SDS011;39667;52.274;20.964;2022-07-11T05:11:36;5.40;;;2.20;;
53753;SDS011;39667;52.274;20.964;2022-07-11T05:14:02;3.00;;;2.40;;
53753;SDS011;39667;52.274;20.964;2022-07-11T05:16:28;7.10;;;3.00;;
53753;SDS011;39667;52.274;20.964;2022-07-11T05:18:55;7.30;;;3.00;;
53753;SDS011;39667;52.274;20.964;2022-07-11T05:21:22;5.70;;;3.60;;
53753;SDS011;39667;52.274;20.964;2022-07-11T05:23:50;6.20;;;2.70;;
53753;SDS011;39667;52.274;20.964;2022-07-11T05:26:16;5.60;;;2.90;;
53753;SDS011;39667;52.274;20.964;2022-07-11T05:28:43;5.40;;;3.70;;
53753;SDS011;39667;52.274;20.964;2022-07-11T05:31:09;8.50;;;3.70;;
53753;SDS011;39667;52.274;20.964;2022-07-11T05:33:36;6.60;;;4.40;;
53753;SDS011;39667;52.274;20.964;2022-07-11T05:36:03;6.50;;;4.70;;
53753;SDS011;39667;52.274;20.964;2022-07-11T05:38:29;7.90;;;4.30;;
53753;SDS011;39667;52.274;20.964;2022-07-11T05:40:55;7.80;;;6.30;;
53753;SDS011;39667;52.274;20.964;2022-07-11T05:43:21;9.00;;;6.40;;
53753;SDS011;39667;52.274;20.964;2022-07-11T05:45:49;8.10;;;6.20;;
53753;SDS011;39667;52.274;20.964;2022-07-11T05:48:15;8.20;;;5.90;;
53753;SDS011;39667;52.274;20.964;2022-07-11T05:50:41;11.00;;;6.60;;
53753;SDS011;39667;52.274;20.964;2022-07-11T05:53:07;11.30;;;6.30;;
53753;SDS011;39667;52.274;20.964;2022-07-11T05:55:35;10.30;;;7.70;;
53753;SDS011;39667;52.274;20.964;2022-07-11T05:58:01;7.80;;;7.10;;
53753;SDS011;39667;52.274;20.964;2022-07-11T06:00:27;11.00;;;7.80;;
53753;SDS011;39667;52.274;20.964;2022-07-11T06:02:54;9.50;;;6.50;;
53753;SDS011;39667;52.274;20.964;2022-07-11T06:05:21;8.40;;;5.70;;
53753;SDS011;39667;52.274;20.964;2022-07-11T06:07:48;8.40;;;5.80;;
53753;SDS011;39667;52.274;20.964;2022-07-11T06:10:33;8.70;;;5.90;;
53753;SDS011;39667;52.274;20.964;2022-07-11T06:12:59;11.20;;;7.00;;
53753;SDS011;39667;52.274;20.964;2022-07-11T06:15:25;6.90;;;5.40;;
53753;SDS011;39667;52.274;20.964;2022-07-11T06:17:51;7.30;;;5.00;;
53753;SDS011;39667;52.274;20.964;2022-07-11T06:20:17;7.50;;;5.20;;
53753;SDS011;39667;52.274;20.964;2022-07-11T06:22:44;8.30;;;4.90;;
53753;SDS011;39667;52.274;20.964;2022-07-11T06:25:10;8.10;;;5.40;;
53753;SDS011;39667;52.274;20.964;2022-07-11T06:27:56;8.40;;;4.10;;
53753;SDS011;39667;52.274;20.964;2022-07-11T06:30:23;7.20;;;4.10;;
53753;SDS011;39667;52.274;20.964;2022-07-11T06:32:50;7.00;;;4.10;;
53753;SDS011;39667;52.274;20.964;2022-07-11T06:35:17;6.90;;;4.50;;
53753;SDS011;39667;52.274;20.964;2022-07-11T06:37:44;5.30;;;3.50;;
53753;SDS011;39667;52.274;20.964;2022-07-11T06:40:11;8.70;;;3.90;;
53753;SDS011;39667;52.274;20.964;2022-07-11T06:42:38;7.70;;;4.40;;
53753;SDS011;39667;52.274;20.964;2022-07-11T06:45:06;4.80;;;3.10;;
53753;SDS011;39667;52.274;20.964;2022-07-11T06:47:34;5.60;;;2.80;;
53753;SDS011;39667;52.274;20.964;2022-07-11T06:50:01;9.50;;;3.70;;
53753;SDS011;39667;52.274;20.964;2022-07-11T06:52:29;6.90;;;3.30;;
53753;SDS011;39667;52.274;20.964;2022-07-11T06:54:56;6.40;;;3.20;;
53753;SDS011;39667;52.274;20.964;2022-07-11T06:57:24;5.40;;;2.90;;
53753;SDS011;39667;52.274;20.964;2022-07-11T06:59:51;4.50;;;2.80;;
53753;SDS011;39667;52.274;20.964;2022-07-11T07:02:18;5.60;;;3.10;;
53753;SDS011;39667;52.274;20.964;2022-07-11T07:04:45;9.90;;;3.20;;
53753;SDS011;39667;52.274;20.964;2022-07-11T07:07:12;5.00;;;2.60;;
53753;SDS011;39667;52.274;20.964;2022-07-11T07:09:39;7.00;;;3.00;;
53753;SDS011;39667;52.274;20.964;2022-07-11T07:12:05;6.80;;;2.80;;
53753;SDS011;39667;52.274;20.964;2022-07-11T07:14:32;5.90;;;3.10;;
53753;SDS011;39667;52.274;20.964;2022-07-11T07:16:59;5.20;;;3.20;;
53753;SDS011;39667;52.274;20.964;2022-07-11T07:19:27;8.10;;;3.70;;
53753;SDS011;39667;52.274;20.964;2022-07-11T07:21:53;5.00;;;4.30;;
53753;SDS011;39667;52.274;20.964;2022-07-11T07:24:21;7.30;;;5.50;;
53753;SDS011;39667;52.274;20.964;2022-07-11T07:26:48;6.90;;;5.00;;
53753;SDS011;39667;52.274;20.964;2022-07-11T07:29:15;6.40;;;4.90;;
53753;SDS011;39667;52.274;20.964;2022-07-11T07:31:42;8.90;;;6.30;;
53753;SDS011;39667;52.274;20.964;2022-07-11T07:34:09;7.60;;;6.20;;
53753;SDS011;39667;52.274;20.964;2022-07-11T07:36:36;8.40;;;6.80;;
53753;SDS011;39667;52.274;20.964;2022-07-11T07:39:03;7.30;;;5.10;;
53753;SDS011;39667;52.274;20.964;2022-07-11T07:41:30;8.90;;;4.90;;
53753;SDS011;39667;52.274;20.964;2022-07-11T07:43:57;8.40;;;5.60;;
53753;SDS011;39667;52.274;20.964;2022-07-11T07:46:24;6.90;;;5.10;;
53753;SDS011;39667;52.274;20.964;2022-07-11T07:48:51;6.20;;;5.40;;
53753;SDS011;39667;52.274;20.964;2022-07-11T07:51:18;11.30;;;6.30;;
53753;SDS011;39667;52.274;20.964;2022-07-11T07:53:45;5.30;;;4.80;;
53753;SDS011;39667;52.274;20.964;2022-07-11T07:56:21;7.40;;;4.20;;
53753;SDS011;39667;52.274;20.964;2022-07-11T07:58:48;6.40;;;4.20;;
53753;SDS011;39667;52.274;20.964;2022-07-11T08:01:15;6.70;;;4.70;;
53753;SDS011;39667;52.274;20.964;2022-07-11T08:06:35;5.90;;;3.40;;
53753;SDS011;39667;52.274;20.964;2022-07-11T08:09:03;5.00;;;3.00;;
53753;SDS011;39667;52.274;20.964;2022-07-11T08:11:31;5.90;;;3.80;;
53753;SDS011;39667;52.274;20.964;2022-07-11T08:14:00;5.50;;;3.30;;
53753;SDS011;39667;52.274;20.964;2022-07-11T08:16:30;5.50;;;3.70;;
53753;SDS011;39667;52.274;20.964;2022-07-11T08:18:59;5.40;;;4.10;;
53753;SDS011;39667;52.274;20.964;2022-07-11T08:21:28;5.40;;;4.10;;
53753;SDS011;39667;52.274;20.964;2022-07-11T08:23:56;8.50;;;3.40;;
53753;SDS011;39667;52.274;20.964;2022-07-11T08:26:23;5.90;;;3.60;;
53753;SDS011;39667;52.274;20.964;2022-07-11T08:28:59;5.50;;;3.40;;
53753;SDS011;39667;52.274;20.964;2022-07-11T08:31:29;5.30;;;3.30;;
53753;SDS011;39667;52.274;20.964;2022-07-11T08:33:56;8.60;;;2.80;;
53753;SDS011;39667;52.274;20.964;2022-07-11T08:36:24;3.00;;;2.70;;
53753;SDS011;39667;52.274;20.964;2022-07-11T08:38:51;3.10;;;2.90;;
53753;SDS011;39667;52.274;20.964;2022-07-11T08:41:18;4.10;;;2.90;;
53753;SDS011;39667;52.274;20.964;2022-07-11T08:43:45;2.50;;;2.20;;
53753;SDS011;39667;52.274;20.964;2022-07-11T08:46:13;5.30;;;2.40;;
53753;SDS011;39667;52.274;20.964;2022-07-11T08:48:41;6.20;;;3.10;;
53753;SDS011;39667;52.274;20.964;2022-07-11T08:51:10;3.60;;;2.40;;
53753;SDS011;39667;52.274;20.964;2022-07-11T08:53:42;3.90;;;1.90;;
53753;SDS011;39667;52.274;20.964;2022-07-11T08:56:13;3.10;;;1.70;;
53753;SDS011;39667;52.274;20.964;2022-07-11T09:01:31;4.10;;;1.80;;
53753;SDS011;39667;52.274;20.964;2022-07-11T09:04:00;2.00;;;1.40;;
53753;SDS011;39667;52.274;20.964;2022-07-11T09:06:28;3.50;;;1.50;;
53753;SDS011;39667;52.274;20.964;2022-07-11T09:08:58;2.00;;;1.10;;
53753;SDS011;39667;52.274;20.964;2022-07-11T09:11:27;1.60;;;0.90;;
53753;SDS011;39667;52.274;20.964;2022-07-11T09:13:55;1.80;;;1.10;;
53753;SDS011;39667;52.274;20.964;2022-07-11T09:16:22;0.50;;;0.50;;
53753;SDS011;39667;52.274;20.964;2022-07-11T09:18:58;1.30;;;0.70;;
53753;SDS011;39667;52.274;20.964;2022-07-11T09:21:26;0.30;;;0.30;;
53753;SDS011;39667;52.274;20.964;2022-07-11T09:24:11;0.80;;;0.40;;
53753;SDS011;39667;52.274;20.964;2022-07-11T09:26:57;1.40;;;0.50;;
53753;SDS011;39667;52.274;20.964;2022-07-11T09:29:24;0.30;;;0.30;;
53753;SDS011;39667;52.274;20.964;2022-07-11T09:31:52;1.40;;;0.40;;
53753;SDS011;39667;52.274;20.964;2022-07-11T09:34:20;1.20;;;0.40;;
53753;SDS011;39667;52.274;20.964;2022-07-11T09:36:53;1.10;;;0.40;;
53753;SDS011;39667;52.274;20.964;2022-07-11T09:39:25;2.70;;;0.30;;
53753;SDS011;39667;52.274;20.964;2022-07-11T09:41:53;0.70;;;0.40;;
53753;SDS011;39667;52.274;20.964;2022-07-11T09:44:28;0.20;;;0.20;;
53753;SDS011;39667;52.274;20.964;2022-07-11T09:47:00;0.50;;;0.30;;
53753;SDS011;39667;52.274;20.964;2022-07-11T09:49:37;0.40;;;0.40;;
53753;SDS011;39667;52.274;20.964;2022-07-11T09:52:08;1.30;;;0.30;;
53753;SDS011;39667;52.274;20.964;2022-07-11T09:54:55;0.30;;;0.20;;
53753;SDS011;39667;52.274;20.964;2022-07-11T09:57:30;1.10;;;0.60;;
53753;SDS011;39667;52.274;20.964;2022-07-11T10:02:32;3.00;;;0.30;;
53753;SDS011;39667;52.274;20.964;2022-07-11T10:04:59;0.20;;;0.20;;
53753;SDS011;39667;52.274;20.964;2022-07-11T10:07:28;1.00;;;0.20;;
53753;SDS011;39667;52.274;20.964;2022-07-11T10:09:59;0.20;;;0.20;;
53753;SDS011;39667;52.274;20.964;2022-07-11T10:12:29;2.70;;;0.30;;
53753;SDS011;39667;52.274;20.964;2022-07-11T10:14:59;0.20;;;0.20;;
53753;SDS011;39667;52.274;20.964;2022-07-11T10:17:33;0.70;;;0.30;;
53753;SDS011;39667;52.274;20.964;2022-07-11T10:25:42;0.20;;;0.20;;
53753;SDS011;39667;52.274;20.964;2022-07-11T10:31:23;0.80;;;0.40;;
53753;SDS011;39667;52.274;20.964;2022-07-11T10:34:11;0.50;;;0.40;;
53753;SDS011;39667;52.274;20.964;2022-07-11T10:36:45;0.60;;;0.60;;
53753;SDS011;39667;52.274;20.964;2022-07-11T10:39:19;3.30;;;0.90;;
53753;SDS011;39667;52.274;20.964;2022-07-11T10:41:57;2.50;;;1.10;;
53753;SDS011;39667;52.274;20.964;2022-07-11T10:44:25;1.70;;;1.10;;
53753;SDS011;39667;52.274;20.964;2022-07-11T10:46:54;1.00;;;0.90;;
53753;SDS011;39667;52.274;20.964;2022-07-11T10:49:32;1.40;;;0.40;;
53753;SDS011;39667;52.274;20.964;2022-07-11T10:52:08;2.90;;;0.50;;
53753;SDS011;39667;52.274;20.964;2022-07-11T11:02:26;1.20;;;0.20;;
53753;SDS011;39667;52.274;20.964;2022-07-11T11:04:56;1.30;;;0.70;;
53753;SDS011;39667;52.274;20.964;2022-07-11T11:07:40;1.00;;;0.30;;
53753;SDS011;39667;52.274;20.964;2022-07-11T11:15:31;2.30;;;0.50;;
53753;SDS011;39667;52.274;20.964;2022-07-11T11:18:29;1.30;;;0.40;;
53753;SDS011;39667;52.274;20.964;2022-07-11T11:23:35;0.40;;;0.40;;
53753;SDS011;39667;52.274;20.964;2022-07-11T11:26:17;0.80;;;0.40;;
53753;SDS011;39667;52.274;20.964;2022-07-11T11:28:58;3.10;;;0.80;;
53753;SDS011;39667;52.274;20.964;2022-07-11T11:31:30;1.80;;;0.30;;
53753;SDS011;39667;52.274;20.964;2022-07-11T11:33:58;1.30;;;0.50;;
53753;SDS011;39667;52.274;20.964;2022-07-11T11:36:27;0.20;;;0.20;;
53753;SDS011;39667;52.274;20.964;2022-07-11T11:38:54;0.90;;;0.40;;
53753;SDS011;39667;52.274;20.964;2022-07-11T11:41:23;0.90;;;0.60;;
53753;SDS011;39667;52.274;20.964;2022-07-11T11:44:00;1.70;;;1.20;;
53753;SDS011;39667;52.274;20.964;2022-07-11T11:46:29;1.50;;;0.50;;
53753;SDS011;39667;52.274;20.964;2022-07-11T11:48:58;0.70;;;0.40;;
53753;SDS011;39667;52.274;20.964;2022-07-11T11:51:27;0.60;;;0.50;;
53753;SDS011;39667;52.274;20.964;2022-07-11T11:53:56;0.30;;;0.30;;
53753;SDS011;39667;52.274;20.964;2022-07-11T11:56:25;2.40;;;0.50;;
53753;SDS011;39667;52.274;20.964;2022-07-11T11:59:08;1.40;;;0.60;;
53753;SDS011;39667;52.274;20.964;2022-07-11T12:01:44;1.60;;;0.50;;
53753;SDS011;39667;52.274;20.964;2022-07-11T12:04:14;0.70;;;0.40;;
53753;SDS011;39667;52.274;20.964;2022-07-11T12:06:43;3.10;;;0.60;;
53753;SDS011;39667;52.274;20.964;2022-07-11T12:11:46;0.90;;;0.40;;
53753;SDS011;39667;52.274;20.964;2022-07-11T12:14:35;1.40;;;0.30;;
53753;SDS011;39667;52.274;20.964;2022-07-11T12:17:02;1.00;;;0.20;;
53753;SDS011;39667;52.274;20.964;2022-07-11T12:19:33;0.60;;;0.40;;
53753;SDS011;39667;52.274;20.964;2022-07-11T12:22:03;2.10;;;0.60;;
53753;SDS011;39667;52.274;20.964;2022-07-11T12:24:32;0.90;;;0.40;;
53753;SDS011;39667;52.274;20.964;2022-07-11T12:26:59;1.20;;;0.60;;
53753;SDS011;39667;52.274;20.964;2022-07-11T12:29:27;0.90;;;0.50;;
53753;SDS011;39667;52.274;20.964;2022-07-11T12:31:58;3.10;;;0.90;;
53753;SDS011;39667;52.274;20.964;2022-07-11T12:37:06;0.90;;;0.50;;
53753;SDS011;39667;52.274;20.964;2022-07-11T12:39:36;3.30;;;0.70;;
53753;SDS011;39667;52.274;20.964;2022-07-11T12:42:25;1.50;;;0.40;;
53753;SDS011;39667;52.274;20.964;2022-07-11T12:45:03;1.30;;;0.50;;
53753;SDS011;39667;52.274;20.964;2022-07-11T12:47:41;0.90;;;0.60;;
53753;SDS011;39667;52.274;20.964;2022-07-11T12:50:13;0.60;;;0.50;;
53753;SDS011;39667;52.274;20.964;2022-07-11T12:53:10;2.20;;;0.90;;
53753;SDS011;39667;52.274;20.964;2022-07-11T12:55:40;2.70;;;1.40;;
53753;SDS011;39667;52.274;20.964;2022-07-11T12:58:10;1.60;;;0.90;;
53753;SDS011;39667;52.274;20.964;2022-07-11T13:00:54;1.00;;;0.60;;
53753;SDS011;39667;52.274;20.964;2022-07-11T13:03:30;0.60;;;0.30;;
53753;SDS011;39667;52.274;20.964;2022-07-11T13:05:59;2.30;;;0.70;;
53753;SDS011;39667;52.274;20.964;2022-07-11T13:08:30;0.90;;;0.40;;
53753;SDS011;39667;52.274;20.964;2022-07-11T13:11:17;1.50;;;0.60;;
53753;SDS011;39667;52.274;20.964;2022-07-11T13:13:47;0.60;;;0.30;;
53753;SDS011;39667;52.274;20.964;2022-07-11T13:16:15;0.90;;;0.60;;
53753;SDS011;39667;52.274;20.964;2022-07-11T13:18:44;0.30;;;0.30;;
53753;SDS011;39667;52.274;20.964;2022-07-11T13:21:12;0.80;;;0.50;;
53753;SDS011;39667;52.274;20.964;2022-07-11T13:23:41;0.70;;;0.50;;
53753;SDS011;39667;52.274;20.964;2022-07-11T13:26:09;3.30;;;0.50;;
53753;SDS011;39667;52.274;20.964;2022-07-11T13:28:37;2.90;;;0.60;;
53753;SDS011;39667;52.274;20.964;2022-07-11T13:31:04;0.60;;;0.30;;
53753;SDS011;39667;52.274;20.964;2022-07-11T13:33:42;1.60;;;0.40;;
53753;SDS011;39667;52.274;20.964;2022-07-11T13:36:10;0.60;;;0.30;;
53753;SDS011;39667;52.274;20.964;2022-07-11T13:38:37;0.90;;;0.70;;
53753;SDS011;39667;52.274;20.964;2022-07-11T13:41:04;2.20;;;0.90;;
53753;SDS011;39667;52.274;20.964;2022-07-11T13:43:39;1.50;;;0.60;;
53753;SDS011;39667;52.274;20.964;2022-07-11T13:46:06;1.20;;;0.50;;
53753;SDS011;39667;52.274;20.964;2022-07-11T13:48:34;0.80;;;0.40;;
53753;SDS011;39667;52.274;20.964;2022-07-11T13:51:02;0.80;;;0.50;;
53753;SDS011;39667;52.274;20.964;2022-07-11T13:53:29;2.30;;;1.00;;
53753;SDS011;39667;52.274;20.964;2022-07-11T13:55:56;0.80;;;0.60;;
53753;SDS011;39667;52.274;20.964;2022-07-11T13:58:22;2.50;;;0.60;;
53753;SDS011;39667;52.274;20.964;2022-07-11T14:00:57;5.40;;;0.50;;
53753;SDS011;39667;52.274;20.964;2022-07-11T14:03:24;1.60;;;0.50;;
53753;SDS011;39667;52.274;20.964;2022-07-11T14:05:52;2.40;;;0.70;;
53753;SDS011;39667;52.274;20.964;2022-07-11T14:08:19;1.00;;;0.50;;
53753;SDS011;39667;52.274;20.964;2022-07-11T14:10:47;0.50;;;0.50;;
53753;SDS011;39667;52.274;20.964;2022-07-11T14:13:14;5.50;;;0.70;;
53753;SDS011;39667;52.274;20.964;2022-07-11T14:15:42;1.30;;;0.60;;
53753;SDS011;39667;52.274;20.964;2022-07-11T14:18:09;4.20;;;0.70;;
53753;SDS011;39667;52.274;20.964;2022-07-11T14:20:36;1.00;;;0.60;;
53753;SDS011;39667;52.274;20.964;2022-07-11T14:23:03;1.20;;;0.50;;
53753;SDS011;39667;52.274;20.964;2022-07-11T14:25:30;0.70;;;0.40;;
53753;SDS011;39667;52.274;20.964;2022-07-11T14:27:59;1.50;;;0.50;;
53753;SDS011;39667;52.274;20.964;2022-07-11T14:30:28;1.50;;;0.70;;
53753;SDS011;39667;52.274;20.964;2022-07-11T14:32:55;3.70;;;0.50;;
53753;SDS011;39667;52.274;20.964;2022-07-11T14:35:22;1.40;;;0.70;;
53753;SDS011;39667;52.274;20.964;2022-07-11T14:37:50;2.10;;;0.60;;
53753;SDS011;39667;52.274;20.964;2022-07-11T14:40:17;1.20;;;0.90;;
53753;SDS011;39667;52.274;20.964;2022-07-11T14:42:44;3.30;;;1.20;;
53753;SDS011;39667;52.274;20.964;2022-07-11T14:45:11;2.40;;;0.90;;
53753;SDS011;39667;52.274;20.964;2022-07-11T14:47:39;2.10;;;0.90;;
53753;SDS011;39667;52.274;20.964;2022-07-11T14:50:06;2.00;;;0.70;;
53753;SDS011;39667;52.274;20.964;2022-07-11T14:52:35;2.50;;;1.10;;
53753;SDS011;39667;52.274;20.964;2022-07-11T14:55:03;2.00;;;0.60;;
53753;SDS011;39667;52.274;20.964;2022-07-11T14:57:31;3.40;;;0.70;;
53753;SDS011;39667;52.274;20.964;2022-07-11T14:59:57;0.40;;;0.40;;
53753;SDS011;39667;52.274;20.964;2022-07-11T15:02:24;0.30;;;0.20;;
53753;SDS011;39667;52.274;20.964;2022-07-11T15:05:10;0.50;;;0.20;;
53753;SDS011;39667;52.274;20.964;2022-07-11T15:07:37;0.90;;;0.40;;
53753;SDS011;39667;52.274;20.964;2022-07-11T15:10:24;2.40;;;0.50;;
53753;SDS011;39667;52.274;20.964;2022-07-11T15:13:16;1.50;;;0.40;;
53753;SDS011;39667;52.274;20.964;2022-07-11T15:15:43;2.00;;;0.40;;
53753;SDS011;39667;52.274;20.964;2022-07-11T15:18:10;1.50;;;0.50;;
53753;SDS011;39667;52.274;20.964;2022-07-11T15:20:40;1.00;;;0.40;;
53753;SDS011;39667;52.274;20.964;2022-07-11T15:23:07;0.40;;;0.30;;